createdAt,value
2023-03-16T00:09:20.622Z,97979.88
2023-03-16T00:19:23.282Z,97978.94
2023-03-16T00:29:25.771Z,97975.66
2023-03-16T00:39:28.050Z,97984.25
2023-03-16T00:49:35.040Z,97979.50
2023-03-16T00:59:38.306Z,97977.59
2023-03-16T01:09:42.599Z,97962.78
2023-03-16T01:19:46.285Z,97952.47
2023-03-16T01:29:48.682Z,97938.91
2023-03-16T01:39:50.998Z,97941.47
2023-03-16T01:49:56.784Z,97923.47
2023-03-16T02:00:19.470Z,97921.66
2023-03-16T02:10:22.047Z,97917.06
2023-03-16T02:20:34.607Z,97922.53
2023-03-16T02:30:37.333Z,97910.22
2023-03-16T02:40:40.061Z,97902.72
2023-03-16T02:50:47.779Z,97900.44
2023-03-16T03:00:50.166Z,97906.09
2023-03-16T03:10:52.449Z,97885.28
2023-03-16T03:20:54.799Z,97876.25
2023-03-16T03:30:57.452Z,97870.84
2023-03-16T03:40:59.958Z,97862.25
2023-03-16T03:51:03.338Z,97859.41
2023-03-16T04:01:05.822Z,97858.13
2023-03-16T04:11:08.379Z,97841.81
2023-03-16T04:21:17.018Z,97853.69
2023-03-16T04:31:19.360Z,97843.25
2023-03-16T04:41:22.058Z,97845.09
2023-03-16T04:51:25.840Z,97837.31
2023-03-16T05:01:29.726Z,97839.31
2023-03-16T05:11:32.448Z,97847.09
2023-03-16T05:21:38.145Z,97844.16
2023-03-16T05:31:40.780Z,97828.56
2023-03-16T05:41:44.143Z,97835.19
2023-03-16T05:51:46.660Z,97833.72
2023-03-16T06:01:50.696Z,97835.38
2023-03-16T06:11:53.080Z,97844.87
2023-03-16T06:21:55.572Z,97832.66
2023-03-16T06:31:58.399Z,97844.53
2023-03-16T06:42:00.772Z,97841.09
2023-03-16T06:52:03.720Z,97819.81
2023-03-16T07:02:07.514Z,97826.06
2023-03-16T07:12:10.783Z,97813.84
2023-03-16T07:22:13.863Z,97795.31
2023-03-16T07:32:16.786Z,97785.69
2023-03-16T07:42:20.348Z,97773.34
2023-03-16T07:52:22.944Z,97786.16
2023-03-16T08:02:25.570Z,97806.22
2023-03-16T08:12:28.469Z,97820.09
2023-03-16T08:22:31.213Z,97795.72
2023-03-16T08:32:34.507Z,97791.91
2023-03-16T08:42:39.274Z,97784.13
2023-03-16T08:52:42.116Z,97794.88
2023-03-16T09:02:45.859Z,97798.16
2023-03-16T09:12:48.420Z,97781.13
2023-03-16T09:22:50.840Z,97778.28
2023-03-16T09:32:53.587Z,97767.66
2023-03-16T09:43:39.487Z,97748.84
2023-03-16T09:53:43.225Z,97747.25
2023-03-16T10:04:06.402Z,97734.75
2023-03-16T10:14:24.361Z,97747.97
2023-03-16T10:24:43.640Z,97737.34
2023-03-16T10:35:01.001Z,97734.31
2023-03-16T10:45:04.535Z,97735.91
2023-03-16T10:55:29.368Z,97721.03
2023-03-16T11:05:36.093Z,97717.56
2023-03-16T11:15:47.895Z,97725.72
2023-03-16T11:25:54.714Z,97712.00
2023-03-16T11:36:28.655Z,97696.47
2023-03-16T11:46:57.806Z,97700.66
2023-03-16T11:57:07.426Z,97694.50
2023-03-16T12:07:35.898Z,97683.53
2023-03-16T12:17:39.646Z,97673.50
2023-03-16T12:27:44.443Z,97671.22
2023-03-16T12:38:16.438Z,97654.31
2023-03-16T12:48:25.606Z,97642.50
2023-03-16T12:58:28.504Z,97636.84
2023-03-16T13:08:44.301Z,97630.34
2023-03-16T13:18:47.140Z,97621.09
2023-03-16T13:28:55.618Z,97614.63
2023-03-16T13:39:05.578Z,97603.88
2023-03-16T13:49:09.424Z,97602.50
2023-03-16T13:59:16.103Z,97597.25
2023-03-16T14:09:23.067Z,97585.25
2023-03-16T14:19:36.877Z,97591.00
2023-03-16T14:29:43.073Z,97564.25
2023-03-16T14:39:58.506Z,97569.50
2023-03-16T14:50:09.093Z,97556.97
2023-03-16T15:00:15.796Z,97554.16
2023-03-16T15:10:30.417Z,97547.34
2023-03-16T15:20:41.750Z,97548.34
2023-03-16T15:30:47.221Z,97532.09
2023-03-16T15:40:51.966Z,97522.84
2023-03-16T15:51:05.058Z,97519.91
2023-03-16T16:01:09.531Z,97515.78
2023-03-16T16:11:18.391Z,97507.31
2023-03-16T16:21:24.736Z,97506.66
2023-03-16T16:31:31.031Z,97496.81
2023-03-16T16:41:36.401Z,97492.09
2023-03-16T16:51:39.871Z,97492.81
2023-03-16T17:01:42.672Z,97482.75
2023-03-16T17:11:46.187Z,97483.53
2023-03-16T17:21:49.625Z,97476.28
2023-03-16T17:31:52.605Z,97480.38
2023-03-16T17:41:58.032Z,97477.97
2023-03-16T17:52:01.842Z,97485.44
2023-03-16T18:02:22.452Z,97474.09
2023-03-16T18:12:24.964Z,97479.19
2023-03-16T18:22:28.297Z,97462.91
2023-03-16T18:32:32.215Z,97466.56
2023-03-16T18:42:34.688Z,97467.06
2023-03-16T18:52:39.706Z,97469.13
2023-03-16T19:02:44.311Z,97479.50
2023-03-16T19:12:47.112Z,97471.53
2023-03-16T19:22:54.663Z,97464.09
2023-03-16T19:32:58.346Z,97456.31
2023-03-16T19:43:01.000Z,97458.28
2023-03-16T19:53:14.298Z,97451.75
2023-03-16T20:03:17.181Z,97446.53
2023-03-16T20:13:20.463Z,97450.44
2023-03-16T20:23:28.586Z,97437.06
2023-03-16T20:33:32.446Z,97432.41
2023-03-16T20:43:36.986Z,97428.12
2023-03-16T20:53:39.643Z,97426.19
2023-03-16T21:03:42.609Z,97419.63
2023-03-16T21:13:45.402Z,97412.38
2023-03-16T21:23:48.230Z,97420.03
2023-03-16T21:33:52.350Z,97417.41
2023-03-16T21:43:55.236Z,97411.69
2023-03-16T21:53:58.513Z,97403.53
2023-03-16T22:04:06.956Z,97388.00
2023-03-16T22:14:10.735Z,97379.19
2023-03-16T22:24:39.998Z,97367.72
2023-03-16T22:34:47.636Z,97346.84
2023-03-16T22:44:50.189Z,97343.88
2023-03-16T22:54:53.298Z,97351.97
2023-03-16T23:04:56.456Z,97349.88
2023-03-16T23:14:58.843Z,97356.66
2023-03-16T23:25:01.416Z,97357.75
2023-03-16T23:35:13.667Z,97337.34
2023-03-16T23:45:15.918Z,97323.31
2023-03-16T23:55:19.422Z,97332.63
